Time;durP1;ratioP1;P1;durP2;ratioP2;P2;SDS_P1;SDS_P2;PMS_P1;PMS_P2;Temp;Humidity;BMP_temperature;BMP_pressure;BME280_temperature;BME280_humidity;BME280_pressure;Samples;Min_cycle;Max_cycle;Signal;HPM_P1;HPM_P2
2021/01/14 00:00:47;;;;;;;5.38;2.35;;;5.60;50.20;;;;;;5002296;28;20041;-70
2021/01/14 00:03:14;;;;;;;5.90;2.53;;;5.60;50.20;;;;;;5007816;28;20026;-69
2021/01/14 00:05:40;;;;;;;6.03;2.33;;;5.60;50.30;;;;;;5013433;28;20034;-70
2021/01/14 00:08:06;;;;;;;4.32;2.63;;;5.70;50.50;;;;;;5005213;28;20426;-71
2021/01/14 00:10:32;;;;;;;4.90;2.60;;;5.70;50.40;;;;;;5006258;28;20030;-71
2021/01/14 00:12:58;;;;;;;5.40;2.53;;;5.70;50.30;;;;;;4994862;28;20117;-70
2021/01/14 00:15:24;;;;;;;5.03;2.60;;;5.80;50.40;;;;;;5009504;28;20117;-70
2021/01/14 00:17:49;;;;;;;6.18;2.45;;;5.80;50.60;;;;;;5014515;28;20072;-70
2021/01/14 00:20:18;;;;;;;5.57;2.78;;;5.70;50.60;;;;;;5002918;28;20022;-70
2021/01/14 00:22:45;;;;;;;5.75;2.70;;;5.70;50.70;;;;;;4995411;28;20041;-70
2021/01/14 00:25:12;;;;;;;8.00;2.88;;;5.70;50.80;;;;;;4994239;28;20050;-70
2021/01/14 00:27:38;;;;;;;5.18;2.92;;;5.70;50.90;;;;;;4994997;28;20067;-70
2021/01/14 00:30:12;;;;;;;7.18;3.05;;;5.70;50.90;;;;;;5011426;28;20037;-71
2021/01/14 00:32:38;;;;;;;4.47;2.70;;;5.60;51.10;;;;;;5012967;28;20036;-70
2021/01/14 00:35:05;;;;;;;7.90;2.97;;;5.60;51.30;;;;;;5002503;28;20109;-70
2021/01/14 00:40:16;;;;;;;6.35;3.25;;;5.50;51.90;;;;;;5009343;28;20061;-70
2021/01/14 00:42:42;;;;;;;4.50;2.55;;;5.50;52.00;;;;;;4982381;28;20022;-71
2021/01/14 00:45:08;;;;;;;4.53;2.92;;;5.50;51.90;;;;;;5013164;28;20078;-71
2021/01/14 00:47:37;;;;;;;5.85;3.10;;;5.50;52.00;;;;;;4997490;28;20038;-71
2021/01/14 00:50:04;;;;;;;4.20;2.50;;;5.60;52.20;;;;;;5004796;28;20178;-71
2021/01/14 00:52:30;;;;;;;7.20;3.20;;;5.50;52.60;;;;;;5006495;28;20030;-69
2021/01/14 00:54:55;;;;;;;7.88;2.97;;;5.50;52.80;;;;;;4995675;28;20050;-71
2021/01/14 00:57:21;;;;;;;8.13;3.33;;;5.50;52.60;;;;;;4986803;28;20370;-69
2021/01/14 00:59:47;;;;;;;4.60;3.03;;;5.50;52.50;;;;;;5012872;28;20026;-70
2021/01/14 01:02:13;;;;;;;6.75;3.28;;;5.50;52.70;;;;;;5004667;28;20356;-71
2021/01/14 01:04:40;;;;;;;7.95;3.08;;;5.50;52.50;;;;;;4992803;28;20161;-72
2021/01/14 01:07:06;;;;;;;5.53;3.30;;;5.50;52.40;;;;;;5007319;28;20029;-70
2021/01/14 01:09:32;;;;;;;4.80;3.22;;;5.60;52.20;;;;;;5003743;28;20491;-72
2021/01/14 01:11:57;;;;;;;7.88;3.80;;;5.60;52.50;;;;;;5008400;28;20125;-70
2021/01/14 01:14:23;;;;;;;6.70;3.40;;;5.60;52.30;;;;;;5011793;28;20030;-71
2021/01/14 01:16:53;;;;;;;5.88;3.25;;;5.70;52.40;;;;;;4994807;28;20034;-71
2021/01/14 01:19:19;;;;;;;6.53;3.55;;;5.70;52.20;;;;;;4994781;28;20037;-70
2021/01/14 01:21:44;;;;;;;4.78;3.00;;;5.70;52.10;;;;;;4993292;28;20030;-70
2021/01/14 01:24:10;;;;;;;8.70;3.10;;;5.80;52.10;;;;;;4993952;28;20039;-71
2021/01/14 01:26:36;;;;;;;5.88;3.30;;;5.80;52.30;;;;;;5010460;28;20390;-71
2021/01/14 01:29:02;;;;;;;7.22;3.45;;;5.80;52.50;;;;;;5010799;28;20093;-70
2021/01/14 01:31:46;;;;;;;5.50;3.90;;;5.70;52.70;;;;;;5008288;28;20438;-69
2021/01/14 01:34:12;;;;;;;6.60;3.42;;;5.80;52.80;;;;;;5011821;28;20107;-71
2021/01/14 01:36:38;;;;;;;6.38;3.70;;;5.80;52.90;;;;;;5011761;28;20029;-70
2021/01/14 01:39:05;;;;;;;7.38;4.10;;;5.80;53.20;;;;;;5003888;28;20173;-69
2021/01/14 01:41:30;;;;;;;8.07;4.70;;;5.90;53.20;;;;;;4994779;28;20026;-70
2021/01/14 01:43:56;;;;;;;6.63;4.30;;;5.90;53.40;;;;;;5011876;28;20042;-70
2021/01/14 01:46:28;;;;;;;7.10;4.45;;;5.90;53.80;;;;;;5002446;28;20032;-69
2021/01/14 01:48:55;;;;;;;8.05;4.43;;;5.80;54.00;;;;;;5011625;28;20030;-70
2021/01/14 01:51:27;;;;;;;6.47;4.20;;;5.90;54.00;;;;;;5009912;28;20457;-69
2021/01/14 01:53:53;;;;;;;6.38;3.97;;;5.90;54.30;;;;;;5031183;23;20050;-64
2021/01/14 01:56:19;;;;;;;8.18;4.70;;;6.00;54.80;;;;;;5010872;28;20041;-65
2021/01/14 01:58:46;;;;;;;6.90;4.38;;;5.90;55.00;;;;;;5011442;28;20033;-64
2021/01/14 02:01:12;;;;;;;7.30;4.25;;;5.90;54.90;;;;;;5012445;28;20029;-65
2021/01/14 02:03:38;;;;;;;5.22;4.07;;;5.90;55.00;;;;;;5011626;28;20092;-64
2021/01/14 02:06:04;;;;;;;7.88;4.88;;;5.80;55.70;;;;;;5012063;28;20042;-64
2021/01/14 02:08:36;;;;;;;6.00;4.43;;;5.80;56.20;;;;;;5011256;28;20022;-65
2021/01/14 02:11:11;;;;;;;8.23;4.45;;;5.70;56.00;;;;;;5012018;28;20022;-65
2021/01/14 02:13:47;;;;;;;9.98;4.68;;;5.70;56.70;;;;;;5011912;28;20041;-64
2021/01/14 02:16:13;;;;;;;7.80;4.43;;;5.70;56.90;;;;;;5012029;28;20022;-65
2021/01/14 02:18:41;;;;;;;8.15;4.57;;;5.70;56.80;;;;;;5011258;28;20034;-66
2021/01/14 02:21:10;;;;;;;7.03;4.70;;;5.60;56.30;;;;;;5011934;28;20038;-65
2021/01/14 02:24:06;;;;;;;9.23;4.57;;;5.70;56.20;;;;;;5010777;28;20048;-67
2021/01/14 02:26:34;;;;;;;8.55;4.22;;;5.70;55.90;;;;;;5011326;28;20435;-64
2021/01/14 02:29:00;;;;;;;7.45;4.63;;;5.70;56.70;;;;;;5011909;28;20030;-65
2021/01/14 02:31:27;;;;;;;8.90;4.47;;;5.70;56.50;;;;;;5007718;28;20425;-64
2021/01/14 02:33:56;;;;;;;7.30;4.57;;;5.60;56.20;;;;;;4999457;28;20801;-66
2021/01/14 02:36:25;;;;;;;6.47;4.38;;;5.60;56.40;;;;;;5004665;28;20493;-68
2021/01/14 02:38:52;;;;;;;7.47;4.95;;;5.60;56.40;;;;;;5003971;28;20488;-67
2021/01/14 02:41:18;;;;;;;8.75;4.38;;;5.60;56.20;;;;;;5012953;28;20034;-66
2021/01/14 02:43:44;;;;;;;11.68;4.47;;;5.60;55.90;;;;;;5004181;28;20473;-66
2021/01/14 02:46:10;;;;;;;7.13;4.10;;;5.60;55.90;;;;;;5005023;28;20033;-65
2021/01/14 02:48:45;;;;;;;7.57;4.50;;;5.60;55.70;;;;;;5003335;28;20038;-65
2021/01/14 02:51:43;;;;;;;8.82;4.68;;;5.60;55.90;;;;;;5005674;28;20030;-64
2021/01/14 02:54:11;;;;;;;6.32;3.92;;;5.60;55.90;;;;;;5005280;28;20066;-65
2021/01/14 02:56:40;;;;;;;7.55;4.78;;;5.60;55.90;;;;;;5000111;28;20037;-65
2021/01/14 02:59:06;;;;;;;9.13;4.20;;;5.60;57.90;;;;;;5007255;28;20018;-65
2021/01/14 03:01:32;;;;;;;7.07;4.25;;;5.60;58.10;;;;;;5012723;28;20528;-65
2021/01/14 03:03:58;;;;;;;6.75;4.40;;;5.60;56.70;;;;;;5015011;28;20029;-65
2021/01/14 03:06:23;;;;;;;6.97;4.20;;;5.60;56.50;;;;;;5015162;28;20481;-68
2021/01/14 03:08:49;;;;;;;7.43;4.60;;;5.60;56.30;;;;;;5027765;28;20062;-66
2021/01/14 03:11:16;;;;;;;13.13;4.22;;;5.60;56.20;;;;;;5009779;28;20030;-65
2021/01/14 03:13:42;;;;;;;7.28;4.30;;;5.50;56.20;;;;;;5014033;28;20059;-65
2021/01/14 03:16:08;;;;;;;5.60;3.97;;;5.60;56.40;;;;;;5029458;28;20022;-65
2021/01/14 03:18:33;;;;;;;8.02;4.10;;;5.60;56.30;;;;;;5029808;28;20041;-65
2021/01/14 03:20:59;;;;;;;6.38;4.20;;;5.60;56.50;;;;;;5015082;28;20429;-64
2021/01/14 03:23:24;;;;;;;8.27;4.63;;;5.60;56.60;;;;;;5014038;28;20363;-68
2021/01/14 03:25:50;;;;;;;8.88;4.38;;;5.50;56.70;;;;;;5015081;28;20360;-65
2021/01/14 03:28:16;;;;;;;7.93;4.15;;;5.50;56.50;;;;;;5014881;28;20023;-65
2021/01/14 03:30:41;;;;;;;9.45;4.55;;;5.50;56.60;;;;;;5014103;28;20491;-65
2021/01/14 03:33:07;;;;;;;9.15;5.13;;;5.40;59.90;;;;;;5013827;28;20475;-65
2021/01/14 03:35:33;;;;;;;7.18;4.78;;;5.20;64.90;;;;;;4994174;28;20038;-64
2021/01/14 03:37:58;;;;;;;6.82;4.93;;;5.00;67.00;;;;;;5022063;28;20057;-65
2021/01/14 03:40:24;;;;;;;7.82;5.65;;;5.00;67.60;;;;;;5014196;28;20033;-65
2021/01/14 03:42:50;;;;;;;7.93;5.75;;;4.90;68.80;;;;;;5029432;28;20034;-65
2021/01/14 03:45:16;;;;;;;11.18;6.18;;;4.90;69.20;;;;;;5014095;28;20034;-64
2021/01/14 03:47:41;;;;;;;10.48;6.63;;;4.80;70.70;;;;;;5013596;28;20026;-66
2021/01/14 03:50:09;;;;;;;13.75;6.75;;;4.70;72.60;;;;;;5013822;28;20033;-64
2021/01/14 03:52:35;;;;;;;12.07;6.78;;;4.70;73.30;;;;;;5013382;28;20076;-65
2021/01/14 03:55:01;;;;;;;13.77;7.57;;;4.60;73.90;;;;;;5014142;28;20081;-66
2021/01/14 03:57:27;;;;;;;11.65;6.45;;;4.60;74.70;;;;;;5013167;28;20029;-67
2021/01/14 03:59:52;;;;;;;9.20;6.47;;;4.60;73.60;;;;;;5014002;28;20463;-64
2021/01/14 04:02:18;;;;;;;11.80;6.45;;;4.60;73.90;;;;;;5008287;28;20026;-64
2021/01/14 04:04:44;;;;;;;9.35;6.68;;;4.60;73.40;;;;;;5007276;28;20294;-65
2021/01/14 04:07:13;;;;;;;8.23;6.10;;;4.60;73.40;;;;;;5009968;28;20038;-65
2021/01/14 04:09:42;;;;;;;10.77;7.28;;;4.60;73.50;;;;;;4997541;28;20509;-65
2021/01/14 04:12:08;;;;;;;10.02;6.65;;;4.70;72.50;;;;;;5014186;28;20033;-65
2021/01/14 04:14:34;;;;;;;9.35;6.28;;;4.70;72.00;;;;;;5013265;28;20494;-64
2021/01/14 04:17:00;;;;;;;11.27;6.47;;;4.60;72.00;;;;;;5013875;28;20065;-64
2021/01/14 04:19:26;;;;;;;10.52;6.00;;;4.60;72.70;;;;;;5012556;28;20083;-67
2021/01/14 04:21:52;;;;;;;10.57;5.95;;;4.70;72.30;;;;;;5014189;28;20029;-65
2021/01/14 04:24:18;;;;;;;7.82;5.88;;;4.80;71.20;;;;;;5013819;28;20084;-65
2021/01/14 04:26:43;;;;;;;10.40;5.40;;;4.80;69.80;;;;;;5023149;28;20062;-64
2021/01/14 04:29:09;;;;;;;10.40;6.18;;;4.80;69.60;;;;;;5013882;28;20030;-65
2021/01/14 04:31:36;;;;;;;9.25;5.55;;;4.90;68.60;;;;;;5010523;28;20029;-66
2021/01/14 04:34:03;;;;;;;9.98;5.05;;;5.00;68.00;;;;;;4999178;28;20032;-66
2021/01/14 04:36:30;;;;;;;8.98;5.07;;;5.00;67.50;;;;;;5028269;28;20117;-66
2021/01/14 04:38:56;;;;;;;7.25;4.63;;;5.10;67.00;;;;;;5020423;28;20057;-66
2021/01/14 04:41:48;;;;;;;6.60;3.70;;;5.10;66.80;;;;;;5013416;28;20064;-65
2021/01/14 04:44:14;;;;;;;4.57;2.95;;;5.20;65.70;;;;;;5013578;28;20037;-65
2021/01/14 04:46:48;;;;;;;4.68;3.03;;;5.00;66.20;;;;;;5012453;28;20061;-64
2021/01/14 04:49:18;;;;;;;5.22;3.67;;;4.60;69.80;;;;;;5028911;28;20034;-64
2021/01/14 04:51:48;;;;;;;7.03;3.05;;;4.70;72.90;;;;;;5012464;28;20034;-65
2021/01/14 04:54:22;;;;;;;6.32;2.70;;;4.80;73.70;;;;;;5012945;28;20537;-64
2021/01/14 04:56:53;;;;;;;5.25;2.65;;;4.90;73.00;;;;;;5012447;28;20241;-65
2021/01/14 04:59:24;;;;;;;5.68;2.90;;;5.00;72.00;;;;;;5012816;28;20029;-65
2021/01/14 05:01:56;;;;;;;4.05;2.53;;;5.10;73.20;;;;;;5007473;28;20050;-65
2021/01/14 05:04:28;;;;;;;4.43;2.70;;;5.20;72.50;;;;;;5010952;28;20463;-65
2021/01/14 05:06:58;;;;;;;9.15;2.40;;;5.10;72.20;;;;;;5012987;28;20037;-64
2021/01/14 05:09:32;;;;;;;3.97;2.03;;;5.00;70.10;;;;;;5013146;28;20116;-65
2021/01/14 05:11:59;;;;;;;4.13;2.05;;;4.90;71.30;;;;;;5013103;28;20060;-65
2021/01/14 05:14:25;;;;;;;3.25;2.13;;;4.90;70.90;;;;;;5012940;28;20030;-65
2021/01/14 05:16:51;;;;;;;5.60;2.22;;;4.90;70.90;;;;;;5012258;28;20031;-64
2021/01/14 05:19:18;;;;;;;4.32;1.90;;;4.90;70.30;;;;;;5012954;28;20101;-65
2021/01/14 05:21:46;;;;;;;5.20;2.42;;;5.00;69.80;;;;;;5011298;28;20479;-66
2021/01/14 05:24:14;;;;;;;6.93;3.10;;;5.00;70.40;;;;;;5025438;28;20035;-65
2021/01/14 05:26:43;;;;;;;3.50;1.80;;;5.00;68.90;;;;;;5012286;28;20037;-65
2021/01/14 05:29:16;;;;;;;3.88;2.28;;;4.90;68.10;;;;;;5012394;28;20490;-66
2021/01/14 05:31:43;;;;;;;3.72;2.03;;;4.80;67.40;;;;;;5012335;28;20029;-65
2021/01/14 05:34:09;;;;;;;2.47;1.67;;;4.90;68.50;;;;;;5012175;28;20030;-66
2021/01/14 05:36:53;;;;;;;2.55;1.58;;;4.90;66.80;;;;;;5011860;28;20036;-65
2021/01/14 05:39:20;;;;;;;2.42;1.80;;;4.90;65.00;;;;;;5012556;28;20033;-65
2021/01/14 05:41:48;;;;;;;3.58;1.70;;;4.80;65.50;;;;;;5027107;28;20542;-64
2021/01/14 05:44:13;;;;;;;3.08;2.05;;;4.70;65.60;;;;;;5012338;28;20026;-65
2021/01/14 05:46:39;;;;;;;3.25;2.03;;;4.70;66.00;;;;;;5011729;28;20455;-65
2021/01/14 05:49:09;;;;;;;3.85;1.80;;;4.70;65.70;;;;;;5011684;28;20022;-65
2021/01/14 05:51:35;;;;;;;3.88;1.90;;;4.70;64.90;;;;;;5011631;28;20034;-65
2021/01/14 05:54:07;;;;;;;3.95;2.20;;;4.50;65.00;;;;;;5012581;28;20046;-65
2021/01/14 05:56:40;;;;;;;4.43;2.00;;;4.50;65.60;;;;;;5009330;28;20036;-66
2021/01/14 05:59:11;;;;;;;3.72;1.90;;;4.60;65.70;;;;;;5012476;28;20037;-64
2021/01/14 06:01:51;;;;;;;3.17;1.85;;;4.50;64.20;;;;;;5023998;28;20680;-65
2021/01/14 06:04:22;;;;;;;3.38;1.80;;;4.40;64.50;;;;;;5011614;28;20065;-66
2021/01/14 06:06:52;;;;;;;6.13;1.67;;;4.40;64.30;;;;;;5002679;28;20113;-64
2021/01/14 06:09:20;;;;;;;2.28;1.25;;;4.30;63.20;;;;;;5011925;28;20034;-65
2021/01/14 06:11:47;;;;;;;3.13;1.48;;;4.30;63.00;;;;;;5011190;28;20437;-65
2021/01/14 06:14:30;;;;;;;3.65;1.33;;;4.30;61.70;;;;;;5026508;28;20038;-64
2021/01/14 06:17:01;;;;;;;4.13;1.65;;;4.40;60.70;;;;;;5015708;28;20375;-64
2021/01/14 06:19:28;;;;;;;2.97;1.20;;;4.40;60.10;;;;;;5012027;28;20029;-64
2021/01/14 06:21:55;;;;;;;3.47;1.20;;;4.30;59.80;;;;;;5010889;28;20091;-65
2021/01/14 06:24:36;;;;;;;4.50;1.25;;;4.30;58.90;;;;;;5012136;28;20441;-65
2021/01/14 06:27:04;;;;;;;3.33;1.40;;;4.30;59.10;;;;;;5026149;28;20084;-64
2021/01/14 06:29:40;;;;;;;5.40;1.40;;;4.30;59.30;;;;;;5011919;28;20098;-65
2021/01/14 06:32:19;;;;;;;3.75;1.10;;;4.30;58.90;;;;;;5005168;28;20108;-65
2021/01/14 06:34:50;;;;;;;2.88;1.20;;;4.30;58.50;;;;;;5010969;28;20091;-64
2021/01/14 06:37:18;;;;;;;3.72;1.15;;;4.20;58.20;;;;;;5011822;28;20113;-65
2021/01/14 06:39:53;;;;;;;3.67;1.13;;;4.20;58.40;;;;;;5010962;28;20509;-65
2021/01/14 06:42:27;;;;;;;2.40;1.05;;;4.20;58.50;;;;;;5012003;28;20042;-65
2021/01/14 06:44:54;;;;;;;3.67;1.40;;;4.20;58.30;;;;;;5025698;28;20587;-65
2021/01/14 06:47:39;;;;;;;2.08;1.20;;;4.20;58.40;;;;;;5006162;28;20069;-61
2021/01/14 06:50:21;;;;;;;3.85;1.63;;;4.20;58.30;;;;;;5004946;28;20058;-62
2021/01/14 06:53:10;;;;;;;5.00;1.35;;;4.20;57.90;;;;;;5002052;28;20026;-63
2021/01/14 06:55:36;;;;;;;4.65;1.10;;;4.20;57.80;;;;;;5004449;28;20063;-63
2021/01/14 06:58:05;;;;;;;3.17;1.25;;;4.10;57.70;;;;;;5000328;28;20064;-63
2021/01/14 07:00:34;;;;;;;2.60;1.23;;;4.10;56.90;;;;;;5002364;28;20026;-63
2021/01/14 07:03:20;;;;;;;3.70;1.60;;;4.00;57.00;;;;;;4979156;28;20029;-67
2021/01/14 07:05:51;;;;;;;5.20;1.48;;;3.90;57.00;;;;;;4989357;28;20041;-62
2021/01/14 07:08:41;;;;;;;2.58;1.38;;;4.00;56.90;;;;;;4992150;28;20459;-61
2021/01/14 07:11:13;;;;;;;2.15;1.10;;;4.10;57.00;;;;;;4977571;28;20022;-62
2021/01/14 07:13:40;;;;;;;5.72;1.30;;;4.10;56.10;;;;;;5002324;28;20022;-66
2021/01/14 07:16:07;;;;;;;4.90;1.33;;;4.00;55.60;;;;;;5003579;28;20027;-63
2021/01/14 07:18:35;;;;;;;4.25;1.35;;;4.00;56.30;;;;;;4980569;28;20034;-61
2021/01/14 07:21:23;;;;;;;5.13;1.42;;;3.90;55.70;;;;;;4986358;28;20033;-64
2021/01/14 07:24:00;;;;;;;2.28;1.40;;;4.00;55.70;;;;;;4978769;28;20077;-62
2021/01/14 07:26:27;;;;;;;2.42;1.30;;;4.00;55.60;;;;;;4980449;28;20103;-61
2021/01/14 07:28:54;;;;;;;5.53;1.90;;;4.00;55.60;;;;;;4990505;28;20149;-62
2021/01/14 07:31:25;;;;;;;6.65;1.98;;;4.10;55.80;;;;;;4983657;28;20025;-62
2021/01/14 07:33:51;;;;;;;4.28;1.58;;;4.10;55.40;;;;;;5011778;28;20406;-62
2021/01/14 07:36:19;;;;;;;2.80;1.20;;;4.10;54.90;;;;;;4970854;28;20034;-61
2021/01/14 07:38:49;;;;;;;3.30;1.70;;;4.10;53.90;;;;;;4978907;28;20029;-62
2021/01/14 07:41:15;;;;;;;6.10;1.33;;;4.10;54.10;;;;;;5016561;28;20045;-63
2021/01/14 07:43:45;;;;;;;3.63;1.30;;;4.20;53.80;;;;;;5014925;28;20030;-68
2021/01/14 07:46:18;;;;;;;4.63;1.42;;;4.20;52.80;;;;;;5012266;28;20033;-62
2021/01/14 07:48:44;;;;;;;2.90;1.27;;;4.30;53.00;;;;;;5013858;28;20033;-62
2021/01/14 07:51:10;;;;;;;5.57;1.35;;;4.40;52.10;;;;;;5014330;28;20080;-61
2021/01/14 07:53:36;;;;;;;3.90;1.50;;;4.20;53.90;;;;;;4999941;28;20038;-60
2021/01/14 07:56:22;;;;;;;4.88;1.52;;;4.10;53.00;;;;;;4971566;28;20137;-62
2021/01/14 07:58:52;;;;;;;6.00;1.50;;;4.20;52.40;;;;;;4975579;28;20037;-62
2021/01/14 08:01:18;;;;;;;8.82;1.35;;;4.30;52.00;;;;;;4992401;28;20505;-63
2021/01/14 08:03:44;;;;;;;4.47;1.60;;;4.30;52.00;;;;;;4995304;28;20030;-61
2021/01/14 08:06:22;;;;;;;7.60;1.48;;;4.40;52.30;;;;;;4984828;28;20105;-62
2021/01/14 08:09:03;;;;;;;5.20;1.42;;;4.50;51.40;;;;;;4987351;28;20387;-62
2021/01/14 08:11:30;;;;;;;4.25;1.20;;;4.60;50.80;;;;;;5002044;28;20038;-62
2021/01/14 08:14:22;;;;;;;5.28;1.25;;;4.50;51.10;;;;;;5020667;28;20105;-66
2021/01/14 08:16:57;;;;;;;3.28;1.20;;;4.50;51.10;;;;;;4984221;28;20022;-64
2021/01/14 08:19:28;;;;;;;4.10;1.38;;;4.50;52.10;;;;;;4996964;28;20037;-63
2021/01/14 08:22:05;;;;;;;3.25;1.38;;;4.30;52.20;;;;;;5005687;28;20125;-66
2021/01/14 08:24:53;;;;;;;6.22;1.40;;;4.40;52.10;;;;;;5020554;28;20061;-66
2021/01/14 08:28:02;;;;;;;4.18;1.60;;;4.50;51.70;;;;;;4975776;28;20027;-62
2021/01/14 08:30:28;;;;;;;4.75;1.30;;;4.50;51.20;;;;;;4967964;28;20033;-67
2021/01/14 08:32:59;;;;;;;4.55;1.77;;;4.60;51.00;;;;;;4988047;28;20084;-62
2021/01/14 08:35:30;;;;;;;3.95;1.60;;;4.50;51.50;;;;;;4995672;28;20030;-66
2021/01/14 08:37:58;;;;;;;4.45;1.35;;;4.50;51.40;;;;;;4965998;28;20913;-66
2021/01/14 08:40:27;;;;;;;5.43;1.75;;;4.40;52.00;;;;;;4990413;28;20030;-66
2021/01/14 08:43:12;;;;;;;2.75;1.20;;;4.40;52.00;;;;;;4972788;28;20574;-66
2021/01/14 08:45:55;;;;;;;9.07;1.40;;;4.50;52.00;;;;;;5001202;28;20034;-63
2021/01/14 08:48:29;;;;;;;8.95;2.10;;;4.50;52.00;;;;;;4987680;28;20470;-63
2021/01/14 08:50:54;;;;;;;3.72;1.35;;;4.50;52.30;;;;;;4995980;28;20152;-63
2021/01/14 08:53:26;;;;;;;2.88;1.70;;;4.60;52.50;;;;;;4982761;28;20109;-63
2021/01/14 08:55:53;;;;;;;5.25;1.67;;;4.60;52.30;;;;;;4980904;28;20053;-62
2021/01/14 08:58:20;;;;;;;6.32;1.77;;;4.60;52.60;;;;;;4999918;28;20203;-62
2021/01/14 09:00:49;;;;;;;6.95;1.77;;;4.50;53.00;;;;;;5002206;28;20018;-61
2021/01/14 09:03:15;;;;;;;5.15;1.70;;;4.70;52.90;;;;;;4997005;28;20034;-62
2021/01/14 09:05:45;;;;;;;9.25;3.53;;;4.70;53.20;;;;;;4991625;28;20045;-61
2021/01/14 09:08:12;;;;;;;4.88;1.67;;;4.80;53.70;;;;;;5007590;28;20108;-62
2021/01/14 09:10:59;;;;;;;8.43;1.90;;;4.80;54.40;;;;;;4995715;28;20025;-62
2021/01/14 09:13:29;;;;;;;6.63;2.10;;;4.80;55.30;;;;;;5008967;28;20018;-61
2021/01/14 09:15:57;;;;;;;8.95;2.35;;;4.80;56.80;;;;;;5012337;28;20048;-61
2021/01/14 09:18:49;;;;;;;6.82;2.60;;;4.80;57.40;;;;;;4992390;28;20076;-64
2021/01/14 09:21:14;;;;;;;5.20;1.80;;;4.70;60.00;;;;;;4979107;28;20038;-61
2021/01/14 09:23:40;;;;;;;5.97;2.00;;;4.70;60.30;;;;;;4974450;28;20037;-64
2021/01/14 09:26:13;;;;;;;4.30;2.08;;;4.40;62.20;;;;;;4970734;28;20046;-61
2021/01/14 09:28:40;;;;;;;5.15;2.17;;;4.20;63.40;;;;;;5011432;28;20040;-61
2021/01/14 09:31:08;;;;;;;10.50;2.22;;;4.10;64.50;;;;;;4996123;28;20208;-63
2021/01/14 09:33:36;;;;;;;3.95;1.92;;;4.00;65.70;;;;;;5009012;28;20040;-62
2021/01/14 09:36:19;;;;;;;3.75;1.90;;;3.80;67.50;;;;;;5010664;28;20025;-64
2021/01/14 09:38:52;;;;;;;7.07;2.40;;;3.70;69.60;;;;;;5004705;28;20117;-66
2021/01/14 09:41:35;;;;;;;7.57;2.47;;;3.70;70.80;;;;;;4974572;28;20125;-67
2021/01/14 09:44:15;;;;;;;5.90;1.85;;;3.80;71.60;;;;;;4987643;28;20049;-65
2021/01/14 09:46:46;;;;;;;4.60;2.17;;;3.90;70.60;;;;;;4991423;28;20125;-66
2021/01/14 09:49:19;;;;;;;4.50;2.30;;;3.90;68.40;;;;;;4992119;28;20022;-64
2021/01/14 09:51:46;;;;;;;4.75;2.15;;;3.80;69.70;;;;;;4989772;28;20069;-67
2021/01/14 09:54:12;;;;;;;4.00;1.98;;;4.00;68.90;;;;;;4979289;28;20062;-65
2021/01/14 09:56:44;;;;;;;7.10;2.72;;;4.00;69.00;;;;;;4984570;28;20026;-68
2021/01/14 09:59:25;;;;;;;5.10;2.05;;;4.00;69.00;;;;;;4968250;28;20038;-67
2021/01/14 10:02:12;;;;;;;6.25;1.98;;;4.00;69.10;;;;;;4997186;28;20117;-64
2021/01/14 10:04:44;;;;;;;5.50;2.25;;;3.90;68.10;;;;;;5001772;28;20038;-68
2021/01/14 10:07:14;;;;;;;3.83;1.80;;;3.90;71.00;;;;;;4962990;28;20334;-66
2021/01/14 10:09:41;;;;;;;4.93;1.55;;;3.80;69.50;;;;;;4989701;28;20497;-65
2021/01/14 10:12:09;;;;;;;5.72;2.28;;;3.80;70.30;;;;;;5003405;28;20466;-64
2021/01/14 10:14:35;;;;;;;3.58;2.08;;;3.90;72.10;;;;;;4986978;28;20041;-65
2021/01/14 10:17:15;;;;;;;4.18;1.98;;;4.00;71.60;;;;;;4994014;28;20022;-65
2021/01/14 10:19:50;;;;;;;5.65;2.20;;;4.20;72.70;;;;;;4994984;28;20482;-64
2021/01/14 10:22:16;;;;;;;7.90;2.35;;;4.30;69.40;;;;;;5000141;28;20109;-66
2021/01/14 10:24:42;;;;;;;6.43;1.67;;;4.10;68.50;;;;;;5006526;28;20072;-66
2021/01/14 10:27:12;;;;;;;3.88;1.70;;;3.90;71.50;;;;;;5000292;28;20301;-64
2021/01/14 10:29:38;;;;;;;4.70;2.20;;;3.70;70.80;;;;;;4999104;28;20026;-64
2021/01/14 10:32:21;;;;;;;4.30;1.45;;;3.80;73.40;;;;;;5005771;28;20049;-66
2021/01/14 10:34:54;;;;;;;2.33;1.20;;;3.70;71.70;;;;;;5004675;28;20377;-65
2021/01/14 10:37:29;;;;;;;3.53;1.65;;;3.70;72.10;;;;;;4994511;28;20345;-64
2021/01/14 10:40:01;;;;;;;5.18;2.20;;;3.80;73.70;;;;;;5018939;28;20026;-65
2021/01/14 10:42:33;;;;;;;6.72;2.20;;;3.90;75.00;;;;;;4996829;28;20405;-65
2021/01/14 10:45:12;;;;;;;6.57;1.95;;;4.00;73.70;;;;;;5006542;28;20493;-66
2021/01/14 10:47:42;;;;;;;4.80;2.17;;;3.80;74.60;;;;;;5010398;28;20036;-64
2021/01/14 10:50:23;;;;;;;7.68;3.17;;;3.80;77.50;;;;;;5009712;28;20105;-64
2021/01/14 10:52:55;;;;;;;7.45;2.90;;;3.90;77.40;;;;;;4997207;28;20033;-71
2021/01/14 10:55:21;;;;;;;6.13;2.37;;;3.90;78.40;;;;;;4994995;28;20116;-63
2021/01/14 10:57:55;;;;;;;5.95;2.47;;;4.00;79.10;;;;;;5014848;28;20023;-64
2021/01/14 11:00:22;;;;;;;;;;;4.10;78.80;;;;;;4992428;28;20122;-65
2021/01/14 11:02:58;;;;;;;6.15;2.38;;;4.20;80.10;;;;;;5004961;28;19909;-64
2021/01/14 11:05:47;;;;;;;5.07;2.00;;;4.30;75.80;;;;;;5003234;28;20021;-64
2021/01/14 11:08:18;;;;;;;5.18;2.40;;;4.40;74.30;;;;;;4996954;28;20751;-63
2021/01/14 11:10:46;;;;;;;5.05;2.13;;;4.40;74.00;;;;;;4998323;28;20482;-67
2021/01/14 11:13:15;;;;;;;5.00;2.35;;;4.50;76.00;;;;;;4990987;28;20037;-64
2021/01/14 11:15:42;;;;;;;5.40;1.90;;;4.50;75.20;;;;;;5007884;28;20041;-66
2021/01/14 11:18:09;;;;;;;4.15;1.88;;;4.60;71.80;;;;;;5002838;28;20018;-63
2021/01/14 11:20:35;;;;;;;6.20;1.98;;;4.50;73.20;;;;;;4995752;28;20451;-62
2021/01/14 11:23:02;;;;;;;5.13;2.33;;;4.60;74.90;;;;;;4996626;28;20076;-66
2021/01/14 11:25:30;;;;;;;3.80;2.20;;;4.60;76.40;;;;;;5011936;28;20034;-67
2021/01/14 11:27:57;;;;;;;3.33;2.00;;;4.70;73.60;;;;;;5013838;28;20054;-66
2021/01/14 11:30:23;;;;;;;4.38;2.35;;;4.60;72.60;;;;;;5014619;28;20033;-65
2021/01/14 11:32:50;;;;;;;4.60;2.00;;;4.50;73.80;;;;;;5003981;28;20106;-65
2021/01/14 11:35:16;;;;;;;3.38;1.83;;;4.50;74.80;;;;;;5001979;28;20053;-67
2021/01/14 11:37:42;;;;;;;6.65;2.60;;;4.60;74.40;;;;;;5005617;28;20057;-66
2021/01/14 11:40:08;;;;;;;2.75;1.90;;;4.60;74.10;;;;;;4994323;28;20475;-65
2021/01/14 11:42:34;;;;;;;3.85;1.70;;;4.50;69.90;;;;;;4992126;28;20442;-65
2021/01/14 11:45:00;;;;;;;2.83;1.90;;;4.50;69.70;;;;;;4992441;28;20030;-67
2021/01/14 11:47:26;;;;;;;7.03;2.10;;;4.40;72.10;;;;;;5003297;28;20026;-66
2021/01/14 11:49:52;;;;;;;6.03;2.85;;;4.40;72.60;;;;;;5007506;28;20502;-65
2021/01/14 11:52:20;;;;;;;5.30;2.08;;;4.50;71.80;;;;;;5007683;28;20033;-67
2021/01/14 11:54:47;;;;;;;3.55;2.53;;;4.50;69.90;;;;;;5006978;28;20069;-67
2021/01/14 11:57:12;;;;;;;4.15;2.00;;;4.60;71.80;;;;;;5013748;28;20030;-67
2021/01/14 11:59:38;;;;;;;5.30;3.10;;;4.60;69.90;;;;;;5014063;28;20425;-67
2021/01/14 12:02:04;;;;;;;6.10;2.08;;;4.70;70.60;;;;;;5010574;28;20489;-67
2021/01/14 12:04:29;;;;;;;4.50;2.05;;;4.70;68.60;;;;;;5014396;28;20022;-67
2021/01/14 12:06:55;;;;;;;5.63;3.00;;;4.70;69.10;;;;;;5013576;28;20034;-68
2021/01/14 12:09:21;;;;;;;7.72;4.03;;;4.80;71.00;;;;;;5014099;28;20171;-66
2021/01/14 12:11:47;;;;;;;7.53;4.65;;;5.00;69.70;;;;;;5001770;28;20033;-66
2021/01/14 12:14:13;;;;;;;6.68;3.70;;;5.00;70.00;;;;;;5029031;28;20036;-66
2021/01/14 12:16:39;;;;;;;4.03;2.10;;;5.10;71.40;;;;;;5030102;28;20347;-66
2021/01/14 12:19:04;;;;;;;4.65;1.73;;;5.10;68.70;;;;;;5012008;28;20022;-66
2021/01/14 12:21:30;;;;;;;4.07;2.63;;;5.20;67.30;;;;;;5014018;28;20022;-66
2021/01/14 12:23:56;;;;;;;5.72;2.45;;;5.20;66.40;;;;;;5013047;28;20030;-67
2021/01/14 12:26:22;;;;;;;4.85;2.50;;;5.20;65.70;;;;;;5028325;28;20033;-67
2021/01/14 12:28:47;;;;;;;5.57;2.47;;;5.40;66.80;;;;;;5013885;28;20030;-65
2021/01/14 12:31:13;;;;;;;4.97;2.47;;;5.40;65.00;;;;;;5012787;28;20241;-67
2021/01/14 12:33:39;;;;;;;4.93;2.00;;;5.50;64.80;;;;;;5011963;28;20030;-66
2021/01/14 12:36:05;;;;;;;2.83;1.70;;;5.40;63.10;;;;;;4993818;28;20102;-66
2021/01/14 12:38:31;;;;;;;5.90;2.25;;;5.30;64.50;;;;;;4988002;28;20031;-66
2021/01/14 12:40:57;;;;;;;5.80;2.22;;;5.30;64.60;;;;;;4985806;28;20489;-66
2021/01/14 12:43:23;;;;;;;5.20;2.53;;;5.30;65.90;;;;;;4997017;28;20475;-67
2021/01/14 12:45:51;;;;;;;3.00;2.28;;;5.30;63.90;;;;;;4978333;28;20306;-66
2021/01/14 12:48:18;;;;;;;4.50;2.53;;;5.30;65.60;;;;;;4997478;28;20041;-66
2021/01/14 12:50:44;;;;;;;5.40;2.95;;;5.30;67.80;;;;;;5000269;28;20117;-67
2021/01/14 12:53:11;;;;;;;6.50;2.47;;;5.20;68.20;;;;;;4978010;28;20026;-60
2021/01/14 12:55:37;;;;;;;4.00;2.90;;;5.10;70.10;;;;;;4993884;28;20068;-60
2021/01/14 12:58:06;;;;;;;7.00;2.92;;;5.10;70.20;;;;;;5009003;28;20038;-58
2021/01/14 13:00:31;;;;;;;3.70;2.63;;;5.20;69.20;;;;;;4975286;28;20034;-58
2021/01/14 13:02:57;;;;;;;5.78;3.00;;;5.20;69.30;;;;;;4987657;28;20030;-60
2021/01/14 13:05:23;;;;;;;4.38;2.40;;;5.30;68.70;;;;;;4991578;28;20022;-59
2021/01/14 13:07:49;;;;;;;5.00;2.45;;;5.30;64.40;;;;;;4992613;28;20062;-57
2021/01/14 13:10:14;;;;;;;5.80;2.40;;;5.40;64.80;;;;;;4995845;28;20463;-64
2021/01/14 13:12:41;;;;;;;5.63;2.60;;;5.40;64.80;;;;;;4994625;28;20694;-61